sensor_id;sensor_type;location;lat;lon;timestamp;pressure;altitude;pressure_sealevel;temperature;humidity
75136;BME280;63707;52.212;9.540;2022-11-20T00:02:21;99762.13;;;-6.00;96.31
75136;BME280;63707;52.212;9.540;2022-11-20T00:04:47;99769.13;;;-5.99;96.01
75136;BME280;63707;52.212;9.540;2022-11-20T00:07:13;99772.78;;;-5.89;95.41
75136;BME280;63707;52.212;9.540;2022-11-20T00:09:39;99761.50;;;-6.04;95.61
75136;BME280;63707;52.212;9.540;2022-11-20T00:12:05;99752.50;;;-6.14;95.30
75136;BME280;63707;52.212;9.540;2022-11-20T00:14:30;99761.63;;;-6.05;95.34
75136;BME280;63707;52.212;9.540;2022-11-20T00:16:56;99762.25;;;-6.01;94.89
75136;BME280;63707;52.212;9.540;2022-11-20T00:19:21;99760.97;;;-5.96;95.42
75136;BME280;63707;52.212;9.540;2022-11-20T00:21:47;99761.63;;;-6.05;95.01
75136;BME280;63707;52.212;9.540;2022-11-20T00:24:14;99762.34;;;-6.03;95.38
75136;BME280;63707;52.212;9.540;2022-11-20T00:26:40;99760.88;;;-6.07;95.60
75136;BME280;63707;52.212;9.540;2022-11-20T00:29:05;99760.75;;;-6.06;96.12
75136;BME280;63707;52.212;9.540;2022-11-20T00:31:31;99756.19;;;-6.04;96.15
75136;BME280;63707;52.212;9.540;2022-11-20T00:33:58;99755.69;;;-6.09;96.12
75136;BME280;63707;52.212;9.540;2022-11-20T00:36:25;99760.84;;;-5.94;96.45
75136;BME280;63707;52.212;9.540;2022-11-20T00:38:52;99757.25;;;-5.93;96.60
75136;BME280;63707;52.212;9.540;2022-11-20T00:41:19;99764.25;;;-5.92;96.32
75136;BME280;63707;52.212;9.540;2022-11-20T00:43:44;99762.47;;;-5.81;96.73
75136;BME280;63707;52.212;9.540;2022-11-20T00:46:12;99761.63;;;-5.81;96.18
75136;BME280;63707;52.212;9.540;2022-11-20T00:48:38;99763.88;;;-5.88;96.34
75136;BME280;63707;52.212;9.540;2022-11-20T00:51:04;99768.06;;;-5.96;96.87
75136;BME280;63707;52.212;9.540;2022-11-20T00:53:30;99765.13;;;-6.05;96.85
75136;BME280;63707;52.212;9.540;2022-11-20T00:55:57;99768.72;;;-6.18;95.74
75136;BME280;63707;52.212;9.540;2022-11-20T00:58:29;99764.16;;;-6.16;96.15
75136;BME280;63707;52.212;9.540;2022-11-20T01:00:59;99765.34;;;-6.08;96.65
75136;BME280;63707;52.212;9.540;2022-11-20T01:03:26;99770.22;;;-6.27;96.11
75136;BME280;63707;52.212;9.540;2022-11-20T01:05:51;99771.69;;;-6.23;96.46
75136;BME280;63707;52.212;9.540;2022-11-20T01:08:17;99761.72;;;-6.19;96.15
75136;BME280;63707;52.212;9.540;2022-11-20T01:10:42;99763.00;;;-6.25;96.41
75136;BME280;63707;52.212;9.540;2022-11-20T01:13:08;99757.59;;;-6.11;96.43
75136;BME280;63707;52.212;9.540;2022-11-20T01:15:53;99760.22;;;-5.98;95.72
75136;BME280;63707;52.212;9.540;2022-11-20T01:18:19;99752.25;;;-5.98;95.42
75136;BME280;63707;52.212;9.540;2022-11-20T01:20:44;99755.03;;;-6.25;94.75
75136;BME280;63707;52.212;9.540;2022-11-20T01:23:10;99757.28;;;-6.31;94.89
75136;BME280;63707;52.212;9.540;2022-11-20T01:25:35;99757.06;;;-6.41;95.13
75136;BME280;63707;52.212;9.540;2022-11-20T01:28:01;99755.69;;;-6.47;95.51
75136;BME280;63707;52.212;9.540;2022-11-20T01:30:26;99756.97;;;-6.52;95.83
75136;BME280;63707;52.212;9.540;2022-11-20T01:32:54;99752.72;;;-6.42;96.53
75136;BME280;63707;52.212;9.540;2022-11-20T01:35:20;99745.19;;;-6.36;97.00
75136;BME280;63707;52.212;9.540;2022-11-20T01:37:45;99750.28;;;-6.32;96.56
75136;BME280;63707;52.212;9.540;2022-11-20T01:40:11;99743.19;;;-6.45;96.12
75136;BME280;63707;52.212;9.540;2022-11-20T01:42:37;99738.91;;;-6.22;96.76
75136;BME280;63707;52.212;9.540;2022-11-20T01:48:07;99721.78;;;-6.42;95.76
75136;BME280;63707;52.212;9.540;2022-11-20T01:50:32;99717.84;;;-6.49;96.28
75136;BME280;63707;52.212;9.540;2022-11-20T01:53:02;99720.94;;;-6.55;95.86
75136;BME280;63707;52.212;9.540;2022-11-20T01:55:31;99716.38;;;-6.53;95.69
75136;BME280;63707;52.212;9.540;2022-11-20T01:57:58;99714.88;;;-6.44;95.48
75136;BME280;63707;52.212;9.540;2022-11-20T02:00:24;99713.59;;;-6.64;94.74
75136;BME280;63707;52.212;9.540;2022-11-20T02:02:52;99712.34;;;-6.58;96.22
75136;BME280;63707;52.212;9.540;2022-11-20T02:05:23;99719.66;;;-6.49;96.39
75136;BME280;63707;52.212;9.540;2022-11-20T02:07:50;99709.38;;;-6.41;96.85
75136;BME280;63707;52.212;9.540;2022-11-20T02:10:18;99707.03;;;-6.33;96.72
75136;BME280;63707;52.212;9.540;2022-11-20T02:12:44;99712.03;;;-6.41;95.54
75136;BME280;63707;52.212;9.540;2022-11-20T02:15:28;99716.03;;;-6.36;95.68
75136;BME280;63707;52.212;9.540;2022-11-20T02:17:53;99707.00;;;-6.20;95.73
75136;BME280;63707;52.212;9.540;2022-11-20T02:20:20;99710.53;;;-6.32;96.33
75136;BME280;63707;52.212;9.540;2022-11-20T02:22:50;99706.91;;;-6.31;96.21
75136;BME280;63707;52.212;9.540;2022-11-20T02:25:20;99705.31;;;-6.34;96.19
75136;BME280;63707;52.212;9.540;2022-11-20T02:27:46;99694.41;;;-6.42;96.02
75136;BME280;63707;52.212;9.540;2022-11-20T02:30:12;99696.66;;;-6.74;95.52
75136;BME280;63707;52.212;9.540;2022-11-20T02:32:39;99686.72;;;-6.58;95.76
75136;BME280;63707;52.212;9.540;2022-11-20T02:35:07;99685.72;;;-6.70;95.78
75136;BME280;63707;52.212;9.540;2022-11-20T02:37:36;99676.97;;;-6.57;96.64
75136;BME280;63707;52.212;9.540;2022-11-20T02:40:03;99683.22;;;-6.58;96.34
75136;BME280;63707;52.212;9.540;2022-11-20T02:42:30;99680.97;;;-6.52;96.46
75136;BME280;63707;52.212;9.540;2022-11-20T02:44:56;99680.66;;;-6.47;96.76
75136;BME280;63707;52.212;9.540;2022-11-20T02:47:21;99687.31;;;-6.42;96.70
75136;BME280;63707;52.212;9.540;2022-11-20T02:49:47;99674.91;;;-6.41;96.90
75136;BME280;63707;52.212;9.540;2022-11-20T02:52:12;99672.59;;;-6.46;96.95
75136;BME280;63707;52.212;9.540;2022-11-20T02:54:38;99669.84;;;-6.44;96.86
75136;BME280;63707;52.212;9.540;2022-11-20T02:57:03;99673.22;;;-6.42;96.70
75136;BME280;63707;52.212;9.540;2022-11-20T02:59:30;99671.09;;;-6.37;96.62
75136;BME280;63707;52.212;9.540;2022-11-20T03:01:56;99669.41;;;-6.38;96.68
75136;BME280;63707;52.212;9.540;2022-11-20T03:04:22;99671.53;;;-6.43;96.55
75136;BME280;63707;52.212;9.540;2022-11-20T03:06:47;99674.69;;;-6.38;96.60
75136;BME280;63707;52.212;9.540;2022-11-20T03:09:13;99672.78;;;-6.36;96.82
75136;BME280;63707;52.212;9.540;2022-11-20T03:11:39;99660.66;;;-6.27;96.76
75136;BME280;63707;52.212;9.540;2022-11-20T03:14:05;99659.53;;;-6.36;96.23
75136;BME280;63707;52.212;9.540;2022-11-20T03:16:32;99668.66;;;-6.40;96.47
75136;BME280;63707;52.212;9.540;2022-11-20T03:18:58;99659.97;;;-6.42;96.32
75136;BME280;63707;52.212;9.540;2022-11-20T03:21:24;99654.91;;;-6.58;96.33
75136;BME280;63707;52.212;9.540;2022-11-20T03:23:49;99656.16;;;-6.51;96.30
75136;BME280;63707;52.212;9.540;2022-11-20T03:26:16;99658.38;;;-6.45;96.81
75136;BME280;63707;52.212;9.540;2022-11-20T03:28:48;99648.53;;;-6.43;96.56
75136;BME280;63707;52.212;9.540;2022-11-20T03:31:15;99651.50;;;-6.47;96.36
75136;BME280;63707;52.212;9.540;2022-11-20T03:33:43;99659.66;;;-6.50;96.64
75136;BME280;63707;52.212;9.540;2022-11-20T03:36:10;99654.44;;;-6.39;96.16
75136;BME280;63707;52.212;9.540;2022-11-20T03:38:36;99659.47;;;-6.60;95.52
75136;BME280;63707;52.212;9.540;2022-11-20T03:41:04;99652.38;;;-6.59;96.32
75136;BME280;63707;52.212;9.540;2022-11-20T03:43:30;99650.34;;;-6.56;96.62
75136;BME280;63707;52.212;9.540;2022-11-20T03:45:56;99652.03;;;-6.55;96.63
75136;BME280;63707;52.212;9.540;2022-11-20T03:48:22;99648.88;;;-6.60;96.63
75136;BME280;63707;52.212;9.540;2022-11-20T03:50:49;99653.31;;;-6.60;96.61
75136;BME280;63707;52.212;9.540;2022-11-20T03:53:14;99646.00;;;-6.70;96.48
75136;BME280;63707;52.212;9.540;2022-11-20T03:55:40;99646.53;;;-6.77;96.68
75136;BME280;63707;52.212;9.540;2022-11-20T03:58:06;99640.06;;;-6.48;97.39
75136;BME280;63707;52.212;9.540;2022-11-20T04:00:31;99639.84;;;-6.45;97.42
75136;BME280;63707;52.212;9.540;2022-11-20T04:02:57;99640.13;;;-6.37;97.24
75136;BME280;63707;52.212;9.540;2022-11-20T04:05:23;99642.69;;;-6.48;97.23
75136;BME280;63707;52.212;9.540;2022-11-20T04:07:50;99647.91;;;-6.59;96.92
75136;BME280;63707;52.212;9.540;2022-11-20T04:10:16;99644.53;;;-6.61;96.61
75136;BME280;63707;52.212;9.540;2022-11-20T04:12:41;99647.06;;;-6.59;96.38
75136;BME280;63707;52.212;9.540;2022-11-20T04:15:07;99643.47;;;-6.84;95.95
75136;BME280;63707;52.212;9.540;2022-11-20T04:17:33;99648.31;;;-6.65;97.28
75136;BME280;63707;52.212;9.540;2022-11-20T04:19:59;99647.84;;;-6.33;97.55
75136;BME280;63707;52.212;9.540;2022-11-20T04:22:24;99639.72;;;-6.43;96.60
75136;BME280;63707;52.212;9.540;2022-11-20T04:24:51;99642.91;;;-6.63;96.44
75136;BME280;63707;52.212;9.540;2022-11-20T04:27:17;99636.03;;;-6.53;96.63
75136;BME280;63707;52.212;9.540;2022-11-20T04:29:42;99640.09;;;-6.60;96.89
75136;BME280;63707;52.212;9.540;2022-11-20T04:32:08;99644.94;;;-6.67;96.39
75136;BME280;63707;52.212;9.540;2022-11-20T04:34:33;99633.59;;;-6.56;97.08
75136;BME280;63707;52.212;9.540;2022-11-20T04:36:59;99638.25;;;-6.47;97.26
75136;BME280;63707;52.212;9.540;2022-11-20T04:39:24;99646.56;;;-6.28;96.85
75136;BME280;63707;52.212;9.540;2022-11-20T04:41:51;99638.16;;;-6.09;96.51
75136;BME280;63707;52.212;9.540;2022-11-20T04:44:36;99638.03;;;-6.08;95.52
75136;BME280;63707;52.212;9.540;2022-11-20T04:47:02;99625.34;;;-5.91;96.31
75136;BME280;63707;52.212;9.540;2022-11-20T04:49:28;99627.50;;;-5.85;96.56
75136;BME280;63707;52.212;9.540;2022-11-20T04:51:53;99635.47;;;-5.85;95.93
75136;BME280;63707;52.212;9.540;2022-11-20T04:54:19;99629.06;;;-5.94;95.66
75136;BME280;63707;52.212;9.540;2022-11-20T04:56:47;99629.91;;;-5.93;95.61
75136;BME280;63707;52.212;9.540;2022-11-20T04:59:14;99625.81;;;-5.86;96.53
75136;BME280;63707;52.212;9.540;2022-11-20T05:01:39;99623.53;;;-5.91;96.08
75136;BME280;63707;52.212;9.540;2022-11-20T05:04:05;99625.94;;;-5.88;95.60
75136;BME280;63707;52.212;9.540;2022-11-20T05:06:31;99627.44;;;-6.08;95.71
75136;BME280;63707;52.212;9.540;2022-11-20T05:08:56;99623.44;;;-6.13;96.01
75136;BME280;63707;52.212;9.540;2022-11-20T05:11:22;99619.28;;;-6.17;96.40
75136;BME280;63707;52.212;9.540;2022-11-20T05:13:48;99617.69;;;-6.20;96.41
75136;BME280;63707;52.212;9.540;2022-11-20T05:16:16;99617.69;;;-6.20;96.28
75136;BME280;63707;52.212;9.540;2022-11-20T05:18:43;99616.63;;;-6.17;95.82
75136;BME280;63707;52.212;9.540;2022-11-20T05:21:09;99619.16;;;-6.16;95.01
75136;BME280;63707;52.212;9.540;2022-11-20T05:23:36;99602.34;;;-6.27;95.96
75136;BME280;63707;52.212;9.540;2022-11-20T05:26:02;99601.78;;;-6.44;95.97
75136;BME280;63707;52.212;9.540;2022-11-20T05:28:29;99612.03;;;-6.39;96.24
75136;BME280;63707;52.212;9.540;2022-11-20T05:30:55;99604.94;;;-6.39;96.55
75136;BME280;63707;52.212;9.540;2022-11-20T05:33:22;99601.66;;;-6.42;96.55
75136;BME280;63707;52.212;9.540;2022-11-20T05:35:48;99601.94;;;-6.34;96.16
75136;BME280;63707;52.212;9.540;2022-11-20T05:38:14;99606.00;;;-6.41;96.00
75136;BME280;63707;52.212;9.540;2022-11-20T05:40:39;99595.91;;;-6.36;96.13
75136;BME280;63707;52.212;9.540;2022-11-20T05:43:05;99605.56;;;-6.35;96.55
75136;BME280;63707;52.212;9.540;2022-11-20T05:45:31;99604.50;;;-6.32;96.22
75136;BME280;63707;52.212;9.540;2022-11-20T05:47:58;99611.16;;;-6.27;96.22
75136;BME280;63707;52.212;9.540;2022-11-20T05:50:25;99598.84;;;-6.28;95.35
75136;BME280;63707;52.212;9.540;2022-11-20T05:52:51;99610.69;;;-6.08;95.84
75136;BME280;63707;52.212;9.540;2022-11-20T05:55:16;99598.38;;;-6.09;95.48
75136;BME280;63707;52.212;9.540;2022-11-20T05:57:42;99591.56;;;-6.00;94.90
75136;BME280;63707;52.212;9.540;2022-11-20T06:00:08;99603.00;;;-6.00;95.05
75136;BME280;63707;52.212;9.540;2022-11-20T06:02:34;99601.53;;;-6.04;95.06
75136;BME280;63707;52.212;9.540;2022-11-20T06:05:01;99600.41;;;-6.13;95.12
75136;BME280;63707;52.212;9.540;2022-11-20T06:07:28;99605.78;;;-6.01;95.89
75136;BME280;63707;52.212;9.540;2022-11-20T06:09:53;99610.91;;;-5.76;95.01
75136;BME280;63707;52.212;9.540;2022-11-20T06:12:19;99605.84;;;-5.79;94.64
75136;BME280;63707;52.212;9.540;2022-11-20T06:14:44;99598.78;;;-5.67;94.51
75136;BME280;63707;52.212;9.540;2022-11-20T06:17:10;99596.78;;;-5.53;94.06
75136;BME280;63707;52.212;9.540;2022-11-20T06:19:35;99607.53;;;-5.43;93.63
75136;BME280;63707;52.212;9.540;2022-11-20T06:22:01;99596.34;;;-5.35;92.79
75136;BME280;63707;52.212;9.540;2022-11-20T06:24:28;99602.84;;;-5.40;93.60
75136;BME280;63707;52.212;9.540;2022-11-20T06:26:53;99597.69;;;-5.30;93.30
75136;BME280;63707;52.212;9.540;2022-11-20T06:29:19;99598.91;;;-5.23;93.25
75136;BME280;63707;52.212;9.540;2022-11-20T06:31:44;99585.44;;;-4.97;89.35
75136;BME280;63707;52.212;9.540;2022-11-20T06:34:10;99599.56;;;-4.97;91.36
75136;BME280;63707;52.212;9.540;2022-11-20T06:36:35;99602.22;;;-4.97;92.51
75136;BME280;63707;52.212;9.540;2022-11-20T06:39:01;99591.94;;;-5.01;92.19
75136;BME280;63707;52.212;9.540;2022-11-20T06:41:28;99597.50;;;-5.04;92.86
75136;BME280;63707;52.212;9.540;2022-11-20T06:43:54;99599.78;;;-5.00;93.10
75136;BME280;63707;52.212;9.540;2022-11-20T06:46:20;99598.09;;;-4.90;92.38
75136;BME280;63707;52.212;9.540;2022-11-20T06:48:46;99594.72;;;-4.81;90.54
75136;BME280;63707;52.212;9.540;2022-11-20T06:51:12;99593.91;;;-4.59;86.71
75136;BME280;63707;52.212;9.540;2022-11-20T06:53:38;99590.53;;;-4.61;88.95
75136;BME280;63707;52.212;9.540;2022-11-20T06:56:04;99591.47;;;-4.62;90.58
75136;BME280;63707;52.212;9.540;2022-11-20T06:58:32;99597.53;;;-4.60;91.43
75136;BME280;63707;52.212;9.540;2022-11-20T07:00:58;99588.34;;;-4.56;89.65
75136;BME280;63707;52.212;9.540;2022-11-20T07:03:24;99580.19;;;-4.32;84.89
75136;BME280;63707;52.212;9.540;2022-11-20T07:05:50;99574.28;;;-4.24;83.88
75136;BME280;63707;52.212;9.540;2022-11-20T07:08:15;99575.34;;;-4.16;84.66
75136;BME280;63707;52.212;9.540;2022-11-20T07:10:41;99579.06;;;-4.07;86.62
75136;BME280;63707;52.212;9.540;2022-11-20T07:13:06;99591.91;;;-4.12;88.23
75136;BME280;63707;52.212;9.540;2022-11-20T07:15:33;99590.72;;;-4.19;86.68
75136;BME280;63707;52.212;9.540;2022-11-20T07:17:59;99580.56;;;-4.25;84.64
75136;BME280;63707;52.212;9.540;2022-11-20T07:20:25;99580.59;;;-3.93;86.05
75136;BME280;63707;52.212;9.540;2022-11-20T07:22:53;99586.13;;;-4.17;88.49
75136;BME280;63707;52.212;9.540;2022-11-20T07:25:19;99571.09;;;-4.07;88.02
75136;BME280;63707;52.212;9.540;2022-11-20T07:27:44;99572.81;;;-4.17;86.03
75136;BME280;63707;52.212;9.540;2022-11-20T07:30:11;99580.03;;;-4.08;86.92
75136;BME280;63707;52.212;9.540;2022-11-20T07:32:38;99578.94;;;-4.05;85.70
75136;BME280;63707;52.212;9.540;2022-11-20T07:35:05;99570.28;;;-4.19;83.53
75136;BME280;63707;52.212;9.540;2022-11-20T07:37:30;99572.47;;;-4.24;83.89
75136;BME280;63707;52.212;9.540;2022-11-20T07:39:58;99577.41;;;-4.19;84.53
75136;BME280;63707;52.212;9.540;2022-11-20T07:42:24;99582.81;;;-4.09;85.04
75136;BME280;63707;52.212;9.540;2022-11-20T07:44:49;99580.56;;;-4.25;84.30
75136;BME280;63707;52.212;9.540;2022-11-20T07:47:15;99572.22;;;-4.32;84.21
75136;BME280;63707;52.212;9.540;2022-11-20T07:49:42;99570.53;;;-4.33;84.49
75136;BME280;63707;52.212;9.540;2022-11-20T07:52:07;99575.72;;;-4.31;85.34
75136;BME280;63707;52.212;9.540;2022-11-20T07:54:33;99586.97;;;-4.28;85.02
75136;BME280;63707;52.212;9.540;2022-11-20T07:56:58;99588.56;;;-4.25;84.12
75136;BME280;63707;52.212;9.540;2022-11-20T07:59:24;99592.53;;;-4.31;84.78
75136;BME280;63707;52.212;9.540;2022-11-20T08:01:53;99584.19;;;-4.37;84.90
75136;BME280;63707;52.212;9.540;2022-11-20T08:04:18;99588.06;;;-4.30;85.43
75136;BME280;63707;52.212;9.540;2022-11-20T08:06:45;99579.00;;;-4.39;84.97
75136;BME280;63707;52.212;9.540;2022-11-20T08:09:11;99590.59;;;-4.40;84.76
75136;BME280;63707;52.212;9.540;2022-11-20T08:11:36;99596.66;;;-4.38;85.40
75136;BME280;63707;52.212;9.540;2022-11-20T08:14:20;99588.06;;;-4.30;85.65
75136;BME280;63707;52.212;9.540;2022-11-20T08:16:47;99590.84;;;-4.43;84.43
75136;BME280;63707;52.212;9.540;2022-11-20T08:19:14;99591.22;;;-4.36;84.71
75136;BME280;63707;52.212;9.540;2022-11-20T08:21:40;99597.75;;;-4.40;84.81
75136;BME280;63707;52.212;9.540;2022-11-20T08:24:08;99606.19;;;-4.35;85.47
75136;BME280;63707;52.212;9.540;2022-11-20T08:26:34;99592.06;;;-4.36;85.00
75136;BME280;63707;52.212;9.540;2022-11-20T08:28:59;99597.03;;;-4.43;84.85
75136;BME280;63707;52.212;9.540;2022-11-20T08:31:26;99599.44;;;-4.39;85.52
75136;BME280;63707;52.212;9.540;2022-11-20T08:33:52;99598.59;;;-4.40;85.41
75136;BME280;63707;52.212;9.540;2022-11-20T08:36:19;99598.59;;;-4.40;85.38
75136;BME280;63707;52.212;9.540;2022-11-20T08:38:47;99592.19;;;-4.37;84.84
75136;BME280;63707;52.212;9.540;2022-11-20T08:41:14;99582.84;;;-4.32;83.35
75136;BME280;63707;52.212;9.540;2022-11-20T08:43:49;99586.97;;;-4.28;83.71
75136;BME280;63707;52.212;9.540;2022-11-20T08:46:15;99600.59;;;-4.10;84.08
75136;BME280;63707;52.212;9.540;2022-11-20T08:48:41;99600.97;;;-4.26;81.20
75136;BME280;63707;52.212;9.540;2022-11-20T08:51:07;99600.59;;;-4.10;83.24
75136;BME280;63707;52.212;9.540;2022-11-20T08:53:32;99591.09;;;-4.24;82.63
75136;BME280;63707;52.212;9.540;2022-11-20T08:55:58;99592.16;;;-4.15;83.69
75136;BME280;63707;52.212;9.540;2022-11-20T08:58:25;99594.09;;;-4.28;82.55
75136;BME280;63707;52.212;9.540;2022-11-20T09:00:51;99589.03;;;-4.31;83.14
75136;BME280;63707;52.212;9.540;2022-11-20T09:03:17;99592.75;;;-4.12;82.22
75136;BME280;63707;52.212;9.540;2022-11-20T09:05:43;99601.44;;;-4.09;81.93
75136;BME280;63707;52.212;9.540;2022-11-20T09:08:09;99596.84;;;-4.07;82.23
75136;BME280;63707;52.212;9.540;2022-11-20T09:10:34;99586.28;;;-3.98;82.10
75136;BME280;63707;52.212;9.540;2022-11-20T09:13:00;99582.81;;;-4.09;81.43
75136;BME280;63707;52.212;9.540;2022-11-20T09:15:28;99588.06;;;-3.87;81.95
75136;BME280;63707;52.212;9.540;2022-11-20T09:17:54;99579.97;;;-3.86;81.64
75136;BME280;63707;52.212;9.540;2022-11-20T09:20:20;99592.41;;;-3.86;82.08
75136;BME280;63707;52.212;9.540;2022-11-20T09:22:46;99590.00;;;-3.89;82.19
75136;BME280;63707;52.212;9.540;2022-11-20T09:25:11;99596.69;;;-3.95;81.69
75136;BME280;63707;52.212;9.540;2022-11-20T09:27:37;99586.50;;;-3.90;82.05
75136;BME280;63707;52.212;9.540;2022-11-20T09:30:03;99592.34;;;-3.96;82.68
75136;BME280;63707;52.212;9.540;2022-11-20T09:32:30;99578.44;;;-3.99;82.62
75136;BME280;63707;52.212;9.540;2022-11-20T09:34:56;99586.38;;;-3.88;82.44
75136;BME280;63707;52.212;9.540;2022-11-20T09:37:22;99594.63;;;-3.91;82.26
75136;BME280;63707;52.212;9.540;2022-11-20T09:39:47;99595.47;;;-3.59;81.13
75136;BME280;63707;52.212;9.540;2022-11-20T09:42:32;99586.88;;;-3.94;82.65
75136;BME280;63707;52.212;9.540;2022-11-20T09:45:23;99577.72;;;-4.01;82.56
75136;BME280;63707;52.212;9.540;2022-11-20T09:48:12;99564.00;;;-4.29;84.26
75136;BME280;63707;52.212;9.540;2022-11-20T09:50:43;99568.75;;;-4.00;83.09
75136;BME280;63707;52.212;9.540;2022-11-20T09:53:18;99556.31;;;-3.68;82.00
75136;BME280;63707;52.212;9.540;2022-11-20T09:55:47;99554.03;;;-3.52;82.04
75136;BME280;63707;52.212;9.540;2022-11-20T09:58:17;99552.66;;;-3.46;81.10
75136;BME280;63707;52.212;9.540;2022-11-20T10:00:46;99552.09;;;-3.29;80.62
75136;BME280;63707;52.212;9.540;2022-11-20T10:03:17;99554.31;;;-2.82;79.43
75136;BME280;63707;52.212;9.540;2022-11-20T10:05:47;99551.56;;;-2.71;78.67
75136;BME280;63707;52.212;9.540;2022-11-20T10:08:21;99559.22;;;-2.38;78.45
75136;BME280;63707;52.212;9.540;2022-11-20T10:10:51;99559.72;;;-2.13;78.06
75136;BME280;63707;52.212;9.540;2022-11-20T10:13:34;99563.00;;;-1.81;76.99
75136;BME280;63707;52.212;9.540;2022-11-20T10:16:14;99568.16;;;-2.18;76.94
75136;BME280;63707;52.212;9.540;2022-11-20T10:18:56;99561.25;;;-2.30;76.42
75136;BME280;63707;52.212;9.540;2022-11-20T10:21:28;99557.34;;;-2.07;76.17
75136;BME280;63707;52.212;9.540;2022-11-20T10:24:15;99554.72;;;-1.78;75.68
75136;BME280;63707;52.212;9.540;2022-11-20T10:26:56;99555.41;;;-1.85;74.95
75136;BME280;63707;52.212;9.540;2022-11-20T10:29:29;99554.97;;;-1.23;74.06
75136;BME280;63707;52.212;9.540;2022-11-20T10:32:02;99562.09;;;-1.04;73.21
75136;BME280;63707;52.212;9.540;2022-11-20T10:34:34;99558.38;;;-0.47;72.38
75136;BME280;63707;52.212;9.540;2022-11-20T10:37:09;99565.56;;;-0.84;72.84
75136;BME280;63707;52.212;9.540;2022-11-20T10:39:41;99556.28;;;-1.00;71.95
75136;BME280;63707;52.212;9.540;2022-11-20T10:42:11;99556.94;;;-1.25;72.73
75136;BME280;63707;52.212;9.540;2022-11-20T10:44:43;99555.56;;;-1.39;74.30
75136;BME280;63707;52.212;9.540;2022-11-20T10:47:28;99556.31;;;-1.09;73.51
75136;BME280;63707;52.212;9.540;2022-11-20T10:49:58;99534.97;;;-1.19;73.86
75136;BME280;63707;52.212;9.540;2022-11-20T10:52:33;99537.44;;;-0.98;73.85
75136;BME280;63707;52.212;9.540;2022-11-20T10:55:10;99537.31;;;-1.06;75.22
75136;BME280;63707;52.212;9.540;2022-11-20T10:57:49;99528.44;;;-0.97;74.73
75136;BME280;63707;52.212;9.540;2022-11-20T11:00:17;99529.41;;;-0.88;74.70
75136;BME280;63707;52.212;9.540;2022-11-20T11:02:46;99524.31;;;-0.82;75.26
75136;BME280;63707;52.212;9.540;2022-11-20T11:05:20;99516.25;;;-1.19;75.80
75136;BME280;63707;52.212;9.540;2022-11-20T11:07:50;99513.78;;;-1.40;75.45
75136;BME280;63707;52.212;9.540;2022-11-20T11:10:18;99510.56;;;-0.97;75.16
75136;BME280;63707;52.212;9.540;2022-11-20T11:12:46;99505.03;;;-0.85;74.78
75136;BME280;63707;52.212;9.540;2022-11-20T11:15:25;99505.19;;;-1.34;75.64
75136;BME280;63707;52.212;9.540;2022-11-20T11:17:52;99497.72;;;-1.30;76.58
75136;BME280;63707;52.212;9.540;2022-11-20T11:20:20;99501.09;;;-1.28;77.17
75136;BME280;63707;52.212;9.540;2022-11-20T11:22:48;99501.53;;;-1.33;76.73
75136;BME280;63707;52.212;9.540;2022-11-20T11:25:26;99502.19;;;-1.21;75.73
75136;BME280;63707;52.212;9.540;2022-11-20T11:27:54;99492.19;;;-1.19;76.26
75136;BME280;63707;52.212;9.540;2022-11-20T11:30:22;99484.41;;;-1.03;75.80
75136;BME280;63707;52.212;9.540;2022-11-20T11:32:48;99482.69;;;-1.31;75.41
75136;BME280;63707;52.212;9.540;2022-11-20T11:35:23;99502.50;;;-1.24;75.60
75136;BME280;63707;52.212;9.540;2022-11-20T11:37:50;99493.94;;;-0.63;78.87
75136;BME280;63707;52.212;9.540;2022-11-20T11:40:18;99493.59;;;-0.78;75.58
75136;BME280;63707;52.212;9.540;2022-11-20T11:42:57;99486.38;;;-0.40;74.75
75136;BME280;63707;52.212;9.540;2022-11-20T11:45:24;99488.00;;;-0.12;73.71
75136;BME280;63707;52.212;9.540;2022-11-20T11:47:51;99482.47;;;-0.28;73.77
75136;BME280;63707;52.212;9.540;2022-11-20T11:50:22;99479.75;;;0.17;73.25
75136;BME280;63707;52.212;9.540;2022-11-20T11:52:58;99469.72;;;0.02;71.85
75136;BME280;63707;52.212;9.540;2022-11-20T11:55:31;99465.81;;;-0.04;72.60
75136;BME280;63707;52.212;9.540;2022-11-20T11:58:06;99470.66;;;0.10;72.17
75136;BME280;63707;52.212;9.540;2022-11-20T12:00:35;99471.25;;;-0.59;74.42
75136;BME280;63707;52.212;9.540;2022-11-20T12:03:08;99463.44;;;-0.43;74.27
75136;BME280;63707;52.212;9.540;2022-11-20T12:05:40;99467.72;;;-0.32;74.17
75136;BME280;63707;52.212;9.540;2022-11-20T12:08:14;99471.75;;;-0.46;74.58
75136;BME280;63707;52.212;9.540;2022-11-20T12:10:46;99482.25;;;-0.89;76.56
75136;BME280;63707;52.212;9.540;2022-11-20T12:13:24;99479.09;;;-1.12;76.36
75136;BME280;63707;52.212;9.540;2022-11-20T12:15:51;99471.44;;;-0.98;76.95
75136;BME280;63707;52.212;9.540;2022-11-20T12:18:18;99462.84;;;-0.64;76.61
75136;BME280;63707;52.212;9.540;2022-11-20T12:20:57;99455.13;;;-1.04;77.67
75136;BME280;63707;52.212;9.540;2022-11-20T12:23:28;99450.81;;;-0.78;76.56
75136;BME280;63707;52.212;9.540;2022-11-20T12:25:58;99441.00;;;-0.87;nan
75136;BME280;63707;52.212;9.540;2022-11-20T12:28:41;99455.09;;;-0.67;77.21
75136;BME280;63707;52.212;9.540;2022-11-20T12:31:25;99448.66;;;-0.47;75.90
75136;BME280;63707;52.212;9.540;2022-11-20T12:34:13;99441.25;;;-0.35;76.26
75136;BME280;63707;52.212;9.540;2022-11-20T12:36:49;99448.13;;;-0.15;74.62
75136;BME280;63707;52.212;9.540;2022-11-20T12:39:30;99451.78;;;-0.51;77.29
75136;BME280;63707;52.212;9.540;2022-11-20T12:42:08;99454.88;;;-0.28;76.60
75136;BME280;63707;52.212;9.540;2022-11-20T12:45:06;99437.66;;;-0.08;75.66
75136;BME280;63707;52.212;9.540;2022-11-20T12:47:44;99436.94;;;0.25;74.76
75136;BME280;63707;52.212;9.540;2022-11-20T12:50:19;99434.38;;;0.16;73.39
75136;BME280;63707;52.212;9.540;2022-11-20T12:52:53;99432.06;;;-0.15;75.44
75136;BME280;63707;52.212;9.540;2022-11-20T12:55:28;99437.06;;;-0.20;75.74
75136;BME280;63707;52.212;9.540;2022-11-20T12:58:00;99429.94;;;-0.29;75.47
75136;BME280;63707;52.212;9.540;2022-11-20T13:00:29;99436.13;;;-0.11;75.91
75136;BME280;63707;52.212;9.540;2022-11-20T13:03:16;99439.16;;;-0.59;76.69
75136;BME280;63707;52.212;9.540;2022-11-20T13:05:57;99440.38;;;-0.53;77.38
75136;BME280;63707;52.212;9.540;2022-11-20T13:08:28;99438.75;;;-0.64;78.31
75136;BME280;63707;52.212;9.540;2022-11-20T13:11:01;99435.41;;;-0.48;77.73